sensor_id;sensor_type;location;lat;lon;timestamp;P1;durP1;ratioP1;P2;durP2;ratioP2
19113;SDS011;9689;51.052;13.772;2023-06-10T00:00:57;11.75;;;9.45;;
19113;SDS011;9689;51.052;13.772;2023-06-10T00:05:59;13.63;;;8.95;;
19113;SDS011;9689;51.052;13.772;2023-06-10T00:11:01;13.68;;;9.40;;
19113;SDS011;9689;51.052;13.772;2023-06-10T00:16:01;13.88;;;9.23;;
19113;SDS011;9689;51.052;13.772;2023-06-10T00:21:02;11.10;;;8.75;;
19113;SDS011;9689;51.052;13.772;2023-06-10T00:26:05;11.20;;;7.63;;
19113;SDS011;9689;51.052;13.772;2023-06-10T00:31:06;12.13;;;6.95;;
19113;SDS011;9689;51.052;13.772;2023-06-10T00:36:07;14.02;;;6.47;;
19113;SDS011;9689;51.052;13.772;2023-06-10T00:41:09;7.75;;;6.25;;
19113;SDS011;9689;51.052;13.772;2023-06-10T00:46:10;10.52;;;6.50;;
19113;SDS011;9689;51.052;13.772;2023-06-10T00:51:12;8.38;;;5.75;;
19113;SDS011;9689;51.052;13.772;2023-06-10T00:56:15;8.30;;;6.18;;
19113;SDS011;9689;51.052;13.772;2023-06-10T01:01:16;10.05;;;6.38;;
19113;SDS011;9689;51.052;13.772;2023-06-10T01:06:19;11.15;;;8.35;;
19113;SDS011;9689;51.052;13.772;2023-06-10T01:11:34;10.18;;;7.53;;
19113;SDS011;9689;51.052;13.772;2023-06-10T01:16:37;12.18;;;7.03;;
19113;SDS011;9689;51.052;13.772;2023-06-10T01:21:43;7.72;;;6.18;;
19113;SDS011;9689;51.052;13.772;2023-06-10T01:26:50;8.13;;;6.35;;
19113;SDS011;9689;51.052;13.772;2023-06-10T01:31:56;9.35;;;6.93;;
19113;SDS011;9689;51.052;13.772;2023-06-10T01:37:05;9.40;;;6.93;;
19113;SDS011;9689;51.052;13.772;2023-06-10T01:42:06;11.73;;;7.30;;
19113;SDS011;9689;51.052;13.772;2023-06-10T01:47:09;15.18;;;7.22;;
19113;SDS011;9689;51.052;13.772;2023-06-10T01:52:11;10.00;;;7.90;;
19113;SDS011;9689;51.052;13.772;2023-06-10T01:57:12;13.30;;;8.18;;
19113;SDS011;9689;51.052;13.772;2023-06-10T02:02:13;16.58;;;8.23;;
19113;SDS011;9689;51.052;13.772;2023-06-10T02:07:15;11.82;;;8.18;;
19113;SDS011;9689;51.052;13.772;2023-06-10T02:12:15;10.02;;;7.70;;
19113;SDS011;9689;51.052;13.772;2023-06-10T02:17:16;12.38;;;8.15;;
19113;SDS011;9689;51.052;13.772;2023-06-10T02:22:19;13.95;;;9.15;;
19113;SDS011;9689;51.052;13.772;2023-06-10T02:27:20;13.65;;;9.00;;
19113;SDS011;9689;51.052;13.772;2023-06-10T02:32:21;13.27;;;8.75;;
19113;SDS011;9689;51.052;13.772;2023-06-10T02:37:24;12.48;;;8.82;;
19113;SDS011;9689;51.052;13.772;2023-06-10T02:42:27;16.67;;;9.50;;
19113;SDS011;9689;51.052;13.772;2023-06-10T02:47:29;14.40;;;8.95;;
19113;SDS011;9689;51.052;13.772;2023-06-10T02:52:31;12.52;;;8.85;;
19113;SDS011;9689;51.052;13.772;2023-06-10T02:57:32;10.70;;;8.23;;
19113;SDS011;9689;51.052;13.772;2023-06-10T03:02:34;12.52;;;8.50;;
19113;SDS011;9689;51.052;13.772;2023-06-10T03:07:40;12.88;;;9.20;;
19113;SDS011;9689;51.052;13.772;2023-06-10T03:12:41;15.35;;;9.48;;
19113;SDS011;9689;51.052;13.772;2023-06-10T03:17:43;12.80;;;9.60;;
19113;SDS011;9689;51.052;13.772;2023-06-10T03:22:46;16.05;;;9.23;;
19113;SDS011;9689;51.052;13.772;2023-06-10T03:27:47;11.85;;;8.40;;
19113;SDS011;9689;51.052;13.772;2023-06-10T03:32:49;11.00;;;7.55;;
19113;SDS011;9689;51.052;13.772;2023-06-10T03:37:54;9.05;;;7.78;;
19113;SDS011;9689;51.052;13.772;2023-06-10T03:42:55;13.45;;;8.18;;
19113;SDS011;9689;51.052;13.772;2023-06-10T03:47:56;12.75;;;8.50;;
19113;SDS011;9689;51.052;13.772;2023-06-10T03:53:04;9.55;;;8.02;;
19113;SDS011;9689;51.052;13.772;2023-06-10T03:58:05;11.80;;;8.80;;
19113;SDS011;9689;51.052;13.772;2023-06-10T04:03:06;8.80;;;7.90;;
19113;SDS011;9689;51.052;13.772;2023-06-10T04:08:14;12.50;;;9.05;;
19113;SDS011;9689;51.052;13.772;2023-06-10T04:13:14;14.07;;;8.27;;
19113;SDS011;9689;51.052;13.772;2023-06-10T04:18:24;11.13;;;7.95;;
19113;SDS011;9689;51.052;13.772;2023-06-10T04:23:30;12.43;;;7.95;;
19113;SDS011;9689;51.052;13.772;2023-06-10T04:28:31;11.70;;;8.55;;
19113;SDS011;9689;51.052;13.772;2023-06-10T04:33:32;11.35;;;9.07;;
19113;SDS011;9689;51.052;13.772;2023-06-10T04:38:36;12.75;;;8.43;;
19113;SDS011;9689;51.052;13.772;2023-06-10T04:43:37;9.90;;;7.45;;
19113;SDS011;9689;51.052;13.772;2023-06-10T04:48:38;10.25;;;7.32;;
19113;SDS011;9689;51.052;13.772;2023-06-10T04:53:43;10.50;;;7.82;;
19113;SDS011;9689;51.052;13.772;2023-06-10T04:58:44;10.77;;;7.03;;
19113;SDS011;9689;51.052;13.772;2023-06-10T05:03:46;9.38;;;6.68;;
19113;SDS011;9689;51.052;13.772;2023-06-10T05:08:48;13.05;;;7.40;;
19113;SDS011;9689;51.052;13.772;2023-06-10T05:13:48;10.30;;;7.28;;
19113;SDS011;9689;51.052;13.772;2023-06-10T05:18:49;8.80;;;6.13;;
19113;SDS011;9689;51.052;13.772;2023-06-10T05:23:52;9.38;;;6.55;;
19113;SDS011;9689;51.052;13.772;2023-06-10T05:28:54;10.07;;;7.35;;
19113;SDS011;9689;51.052;13.772;2023-06-10T05:33:55;9.40;;;6.45;;
19113;SDS011;9689;51.052;13.772;2023-06-10T05:38:57;10.75;;;6.82;;
19113;SDS011;9689;51.052;13.772;2023-06-10T05:43:58;9.07;;;6.82;;
19113;SDS011;9689;51.052;13.772;2023-06-10T05:48:59;12.18;;;7.00;;
19113;SDS011;9689;51.052;13.772;2023-06-10T05:54:01;9.90;;;6.60;;
19113;SDS011;9689;51.052;13.772;2023-06-10T05:59:01;7.93;;;6.40;;
19113;SDS011;9689;51.052;13.772;2023-06-10T06:04:02;8.50;;;6.40;;
19113;SDS011;9689;51.052;13.772;2023-06-10T06:09:04;13.52;;;6.68;;
19113;SDS011;9689;51.052;13.772;2023-06-10T06:14:07;12.18;;;5.50;;
19113;SDS011;9689;51.052;13.772;2023-06-10T06:19:20;8.05;;;5.88;;
19113;SDS011;9689;51.052;13.772;2023-06-10T06:24:22;7.22;;;5.55;;
19113;SDS011;9689;51.052;13.772;2023-06-10T06:29:24;7.57;;;4.80;;
19113;SDS011;9689;51.052;13.772;2023-06-10T06:34:26;7.55;;;5.00;;
19113;SDS011;9689;51.052;13.772;2023-06-10T06:39:28;8.10;;;5.05;;
19113;SDS011;9689;51.052;13.772;2023-06-10T06:44:29;4.88;;;4.32;;
19113;SDS011;9689;51.052;13.772;2023-06-10T06:49:29;7.80;;;5.45;;
19113;SDS011;9689;51.052;13.772;2023-06-10T06:54:31;6.75;;;5.00;;
19113;SDS011;9689;51.052;13.772;2023-06-10T06:59:32;9.70;;;5.07;;
19113;SDS011;9689;51.052;13.772;2023-06-10T07:04:33;10.40;;;6.40;;
19113;SDS011;9689;51.052;13.772;2023-06-10T07:09:36;9.90;;;5.15;;
19113;SDS011;9689;51.052;13.772;2023-06-10T07:14:37;7.18;;;5.28;;
19113;SDS011;9689;51.052;13.772;2023-06-10T07:19:37;7.32;;;4.60;;
19113;SDS011;9689;51.052;13.772;2023-06-10T07:24:40;7.53;;;5.10;;
19113;SDS011;9689;51.052;13.772;2023-06-10T07:29:41;6.88;;;4.97;;
19113;SDS011;9689;51.052;13.772;2023-06-10T07:34:41;8.55;;;5.10;;
19113;SDS011;9689;51.052;13.772;2023-06-10T07:39:43;7.32;;;5.00;;
19113;SDS011;9689;51.052;13.772;2023-06-10T07:44:44;7.88;;;4.90;;
19113;SDS011;9689;51.052;13.772;2023-06-10T07:49:45;11.13;;;5.68;;
19113;SDS011;9689;51.052;13.772;2023-06-10T07:54:48;6.63;;;4.93;;
19113;SDS011;9689;51.052;13.772;2023-06-10T07:59:49;10.05;;;5.35;;
19113;SDS011;9689;51.052;13.772;2023-06-10T08:04:50;7.55;;;5.72;;
19113;SDS011;9689;51.052;13.772;2023-06-10T08:09:52;7.90;;;4.95;;
19113;SDS011;9689;51.052;13.772;2023-06-10T08:14:53;6.95;;;5.00;;
19113;SDS011;9689;51.052;13.772;2023-06-10T08:19:54;6.35;;;4.78;;
19113;SDS011;9689;51.052;13.772;2023-06-10T08:24:56;8.50;;;4.93;;
19113;SDS011;9689;51.052;13.772;2023-06-10T08:29:57;7.55;;;5.15;;
19113;SDS011;9689;51.052;13.772;2023-06-10T08:35:00;6.80;;;5.25;;
19113;SDS011;9689;51.052;13.772;2023-06-10T08:40:03;6.35;;;5.22;;
19113;SDS011;9689;51.052;13.772;2023-06-10T08:45:05;8.32;;;5.30;;
19113;SDS011;9689;51.052;13.772;2023-06-10T08:50:10;7.72;;;4.93;;
19113;SDS011;9689;51.052;13.772;2023-06-10T08:55:13;8.05;;;6.15;;
19113;SDS011;9689;51.052;13.772;2023-06-10T09:00:19;8.55;;;5.30;;
19113;SDS011;9689;51.052;13.772;2023-06-10T09:05:20;8.63;;;4.60;;
19113;SDS011;9689;51.052;13.772;2023-06-10T09:10:22;8.52;;;5.30;;
19113;SDS011;9689;51.052;13.772;2023-06-10T09:15:23;6.35;;;5.03;;
19113;SDS011;9689;51.052;13.772;2023-06-10T09:20:24;7.07;;;5.15;;
19113;SDS011;9689;51.052;13.772;2023-06-10T09:25:35;7.05;;;5.43;;
19113;SDS011;9689;51.052;13.772;2023-06-10T09:30:37;9.18;;;5.57;;
19113;SDS011;9689;51.052;13.772;2023-06-10T09:35:44;13.27;;;5.70;;
19113;SDS011;9689;51.052;13.772;2023-06-10T09:40:51;8.98;;;4.75;;
19113;SDS011;9689;51.052;13.772;2023-06-10T09:45:53;7.32;;;4.68;;
19113;SDS011;9689;51.052;13.772;2023-06-10T09:50:56;7.45;;;4.55;;
19113;SDS011;9689;51.052;13.772;2023-06-10T09:55:58;4.80;;;4.30;;
19113;SDS011;9689;51.052;13.772;2023-06-10T10:00:59;6.05;;;4.60;;
19113;SDS011;9689;51.052;13.772;2023-06-10T10:06:00;11.32;;;5.63;;
19113;SDS011;9689;51.052;13.772;2023-06-10T10:11:02;6.72;;;4.35;;
19113;SDS011;9689;51.052;13.772;2023-06-10T10:16:04;13.30;;;5.28;;
19113;SDS011;9689;51.052;13.772;2023-06-10T10:21:11;12.82;;;5.00;;
19113;SDS011;9689;51.052;13.772;2023-06-10T10:26:14;6.93;;;4.45;;
19113;SDS011;9689;51.052;13.772;2023-06-10T10:31:18;6.85;;;4.45;;
19113;SDS011;9689;51.052;13.772;2023-06-10T10:36:21;8.07;;;4.57;;
19113;SDS011;9689;51.052;13.772;2023-06-10T10:41:23;7.80;;;4.97;;
19113;SDS011;9689;51.052;13.772;2023-06-10T10:46:25;6.10;;;4.55;;
19113;SDS011;9689;51.052;13.772;2023-06-10T10:51:27;7.10;;;4.45;;
19113;SDS011;9689;51.052;13.772;2023-06-10T10:56:36;8.43;;;5.25;;
19113;SDS011;9689;51.052;13.772;2023-06-10T11:01:40;5.68;;;3.83;;
19113;SDS011;9689;51.052;13.772;2023-06-10T11:06:48;5.95;;;4.43;;
19113;SDS011;9689;51.052;13.772;2023-06-10T11:11:54;6.63;;;4.30;;
19113;SDS011;9689;51.052;13.772;2023-06-10T11:16:57;7.80;;;4.10;;
19113;SDS011;9689;51.052;13.772;2023-06-10T11:21:59;8.85;;;4.50;;
19113;SDS011;9689;51.052;13.772;2023-06-10T11:27:18;7.53;;;4.47;;
19113;SDS011;9689;51.052;13.772;2023-06-10T11:32:20;8.20;;;4.43;;
19113;SDS011;9689;51.052;13.772;2023-06-10T11:37:21;7.80;;;4.78;;
19113;SDS011;9689;51.052;13.772;2023-06-10T11:42:23;8.20;;;4.32;;
19113;SDS011;9689;51.052;13.772;2023-06-10T11:47:24;9.48;;;4.15;;
19113;SDS011;9689;51.052;13.772;2023-06-10T11:52:26;7.60;;;5.82;;
19113;SDS011;9689;51.052;13.772;2023-06-10T11:57:29;6.78;;;4.63;;
19113;SDS011;9689;51.052;13.772;2023-06-10T12:02:30;6.00;;;4.38;;
19113;SDS011;9689;51.052;13.772;2023-06-10T12:07:31;8.00;;;4.75;;
19113;SDS011;9689;51.052;13.772;2023-06-10T12:12:33;7.00;;;4.45;;
19113;SDS011;9689;51.052;13.772;2023-06-10T12:17:36;6.05;;;4.55;;
19113;SDS011;9689;51.052;13.772;2023-06-10T12:22:38;6.25;;;3.67;;
19113;SDS011;9689;51.052;13.772;2023-06-10T12:27:50;5.78;;;4.03;;
19113;SDS011;9689;51.052;13.772;2023-06-10T12:32:52;6.90;;;3.85;;
19113;SDS011;9689;51.052;13.772;2023-06-10T12:37:57;6.50;;;4.20;;
19113;SDS011;9689;51.052;13.772;2023-06-10T12:43:01;8.45;;;4.70;;
19113;SDS011;9689;51.052;13.772;2023-06-10T12:48:06;7.13;;;4.68;;
19113;SDS011;9689;51.052;13.772;2023-06-10T12:53:09;5.95;;;4.65;;
19113;SDS011;9689;51.052;13.772;2023-06-10T12:58:12;14.20;;;4.63;;
19113;SDS011;9689;51.052;13.772;2023-06-10T13:03:14;7.72;;;4.60;;
19113;SDS011;9689;51.052;13.772;2023-06-10T13:08:16;6.20;;;4.22;;
19113;SDS011;9689;51.052;13.772;2023-06-10T13:13:18;10.82;;;4.60;;
19113;SDS011;9689;51.052;13.772;2023-06-10T13:18:18;6.25;;;4.47;;
19113;SDS011;9689;51.052;13.772;2023-06-10T13:23:19;5.75;;;4.10;;
19113;SDS011;9689;51.052;13.772;2023-06-10T13:28:21;5.88;;;3.88;;
19113;SDS011;9689;51.052;13.772;2023-06-10T13:33:22;6.00;;;4.00;;
19113;SDS011;9689;51.052;13.772;2023-06-10T13:38:22;5.10;;;3.38;;
19113;SDS011;9689;51.052;13.772;2023-06-10T13:43:24;4.97;;;3.60;;
19113;SDS011;9689;51.052;13.772;2023-06-10T13:48:25;7.40;;;3.63;;
19113;SDS011;9689;51.052;13.772;2023-06-10T13:53:26;7.55;;;3.40;;
19113;SDS011;9689;51.052;13.772;2023-06-10T13:58:28;6.78;;;3.25;;
19113;SDS011;9689;51.052;13.772;2023-06-10T14:03:28;3.72;;;3.10;;
19113;SDS011;9689;51.052;13.772;2023-06-10T14:08:29;6.00;;;3.42;;
19113;SDS011;9689;51.052;13.772;2023-06-10T14:13:31;5.40;;;3.38;;
19113;SDS011;9689;51.052;13.772;2023-06-10T14:18:32;6.45;;;3.38;;
19113;SDS011;9689;51.052;13.772;2023-06-10T14:23:34;10.65;;;3.15;;
19113;SDS011;9689;51.052;13.772;2023-06-10T14:28:36;7.07;;;3.50;;
19113;SDS011;9689;51.052;13.772;2023-06-10T14:33:37;5.35;;;3.42;;
19113;SDS011;9689;51.052;13.772;2023-06-10T14:38:38;5.47;;;3.17;;
19113;SDS011;9689;51.052;13.772;2023-06-10T14:43:40;5.45;;;3.60;;
19113;SDS011;9689;51.052;13.772;2023-06-10T14:48:41;7.97;;;3.70;;
19113;SDS011;9689;51.052;13.772;2023-06-10T14:53:42;7.95;;;3.90;;
19113;SDS011;9689;51.052;13.772;2023-06-10T14:58:44;7.47;;;3.83;;
19113;SDS011;9689;51.052;13.772;2023-06-10T15:03:44;9.18;;;3.85;;
19113;SDS011;9689;51.052;13.772;2023-06-10T15:08:45;10.23;;;4.88;;
19113;SDS011;9689;51.052;13.772;2023-06-10T15:13:49;9.55;;;4.43;;
19113;SDS011;9689;51.052;13.772;2023-06-10T15:18:49;7.15;;;4.40;;
19113;SDS011;9689;51.052;13.772;2023-06-10T15:23:50;9.88;;;4.32;;
19113;SDS011;9689;51.052;13.772;2023-06-10T15:28:52;5.72;;;4.28;;
19113;SDS011;9689;51.052;13.772;2023-06-10T15:33:53;8.10;;;4.32;;
19113;SDS011;9689;51.052;13.772;2023-06-10T15:38:54;8.25;;;5.15;;
19113;SDS011;9689;51.052;13.772;2023-06-10T15:44:01;9.30;;;4.32;;
19113;SDS011;9689;51.052;13.772;2023-06-10T15:49:02;7.20;;;4.47;;
19113;SDS011;9689;51.052;13.772;2023-06-10T15:54:04;9.02;;;4.57;;
19113;SDS011;9689;51.052;13.772;2023-06-10T15:59:06;6.57;;;4.07;;
19113;SDS011;9689;51.052;13.772;2023-06-10T16:04:08;12.63;;;4.53;;
19113;SDS011;9689;51.052;13.772;2023-06-10T16:09:09;5.68;;;4.43;;
19113;SDS011;9689;51.052;13.772;2023-06-10T16:14:11;7.20;;;4.45;;
19113;SDS011;9689;51.052;13.772;2023-06-10T16:19:12;11.55;;;4.50;;
19113;SDS011;9689;51.052;13.772;2023-06-10T16:24:13;6.65;;;4.18;;
19113;SDS011;9689;51.052;13.772;2023-06-10T16:29:16;5.38;;;4.28;;
19113;SDS011;9689;51.052;13.772;2023-06-10T16:34:18;6.03;;;4.30;;
19113;SDS011;9689;51.052;13.772;2023-06-10T16:39:18;6.45;;;4.30;;
19113;SDS011;9689;51.052;13.772;2023-06-10T16:44:20;6.80;;;3.88;;
19113;SDS011;9689;51.052;13.772;2023-06-10T16:49:21;7.00;;;4.15;;
19113;SDS011;9689;51.052;13.772;2023-06-10T16:54:22;7.90;;;4.63;;
19113;SDS011;9689;51.052;13.772;2023-06-10T16:59:24;6.90;;;3.92;;
19113;SDS011;9689;51.052;13.772;2023-06-10T17:04:25;9.95;;;4.22;;
19113;SDS011;9689;51.052;13.772;2023-06-10T17:09:26;11.55;;;7.05;;
19113;SDS011;9689;51.052;13.772;2023-06-10T17:14:28;10.05;;;5.55;;
19113;SDS011;9689;51.052;13.772;2023-06-10T17:19:29;7.82;;;5.43;;
19113;SDS011;9689;51.052;13.772;2023-06-10T17:24:30;9.05;;;4.97;;
19113;SDS011;9689;51.052;13.772;2023-06-10T17:29:32;8.68;;;4.20;;
19113;SDS011;9689;51.052;13.772;2023-06-10T17:34:33;5.93;;;4.30;;
19113;SDS011;9689;51.052;13.772;2023-06-10T17:39:33;6.22;;;3.85;;
19113;SDS011;9689;51.052;13.772;2023-06-10T17:44:36;7.30;;;5.13;;
19113;SDS011;9689;51.052;13.772;2023-06-10T17:49:37;7.05;;;4.78;;
19113;SDS011;9689;51.052;13.772;2023-06-10T17:54:38;10.05;;;4.90;;
19113;SDS011;9689;51.052;13.772;2023-06-10T17:59:40;9.80;;;5.22;;
19113;SDS011;9689;51.052;13.772;2023-06-10T18:04:41;7.32;;;4.53;;
19113;SDS011;9689;51.052;13.772;2023-06-10T18:09:43;9.43;;;5.35;;
19113;SDS011;9689;51.052;13.772;2023-06-10T18:14:45;12.85;;;4.72;;
19113;SDS011;9689;51.052;13.772;2023-06-10T18:19:45;6.88;;;4.60;;
19113;SDS011;9689;51.052;13.772;2023-06-10T18:24:46;7.55;;;5.00;;
19113;SDS011;9689;51.052;13.772;2023-06-10T18:29:48;7.75;;;5.18;;
19113;SDS011;9689;51.052;13.772;2023-06-10T18:34:49;7.38;;;4.72;;
19113;SDS011;9689;51.052;13.772;2023-06-10T18:39:51;10.82;;;5.05;;
19113;SDS011;9689;51.052;13.772;2023-06-10T18:44:53;9.57;;;5.68;;
19113;SDS011;9689;51.052;13.772;2023-06-10T18:49:54;6.03;;;4.70;;
19113;SDS011;9689;51.052;13.772;2023-06-10T18:54:55;8.40;;;5.45;;
19113;SDS011;9689;51.052;13.772;2023-06-10T18:59:57;9.18;;;5.88;;
19113;SDS011;9689;51.052;13.772;2023-06-10T19:04:58;10.38;;;6.03;;
19113;SDS011;9689;51.052;13.772;2023-06-10T19:09:58;8.25;;;5.78;;
19113;SDS011;9689;51.052;13.772;2023-06-10T19:15:01;8.80;;;5.82;;
19113;SDS011;9689;51.052;13.772;2023-06-10T19:20:02;8.90;;;5.93;;
19113;SDS011;9689;51.052;13.772;2023-06-10T19:25:04;19.42;;;6.72;;
19113;SDS011;9689;51.052;13.772;2023-06-10T19:30:08;9.48;;;6.18;;
19113;SDS011;9689;51.052;13.772;2023-06-10T19:35:10;12.77;;;6.97;;
19113;SDS011;9689;51.052;13.772;2023-06-10T19:40:11;12.43;;;8.32;;
19113;SDS011;9689;51.052;13.772;2023-06-10T19:45:13;12.38;;;7.65;;
19113;SDS011;9689;51.052;13.772;2023-06-10T19:50:14;12.68;;;7.13;;
19113;SDS011;9689;51.052;13.772;2023-06-10T19:55:15;13.93;;;7.30;;
19113;SDS011;9689;51.052;13.772;2023-06-10T20:00:18;15.98;;;7.57;;
19113;SDS011;9689;51.052;13.772;2023-06-10T20:05:18;15.65;;;7.68;;
19113;SDS011;9689;51.052;13.772;2023-06-10T20:10:21;10.68;;;7.22;;
19113;SDS011;9689;51.052;13.772;2023-06-10T20:15:23;16.67;;;7.30;;
19113;SDS011;9689;51.052;13.772;2023-06-10T20:20:24;12.77;;;7.22;;
19113;SDS011;9689;51.052;13.772;2023-06-10T20:25:24;17.92;;;10.52;;
19113;SDS011;9689;51.052;13.772;2023-06-10T20:30:27;14.88;;;7.88;;
19113;SDS011;9689;51.052;13.772;2023-06-10T20:35:28;18.75;;;8.32;;
19113;SDS011;9689;51.052;13.772;2023-06-10T20:40:28;15.73;;;7.13;;
19113;SDS011;9689;51.052;13.772;2023-06-10T20:45:31;16.48;;;6.90;;
19113;SDS011;9689;51.052;13.772;2023-06-10T20:50:31;14.00;;;7.28;;
19113;SDS011;9689;51.052;13.772;2023-06-10T20:55:32;10.27;;;6.63;;
19113;SDS011;9689;51.052;13.772;2023-06-10T21:00:35;14.95;;;6.57;;
19113;SDS011;9689;51.052;13.772;2023-06-10T21:05:36;11.63;;;7.45;;
19113;SDS011;9689;51.052;13.772;2023-06-10T21:10:37;13.63;;;6.55;;
19113;SDS011;9689;51.052;13.772;2023-06-10T21:15:39;13.15;;;7.22;;
19113;SDS011;9689;51.052;13.772;2023-06-10T21:20:39;15.43;;;6.55;;
19113;SDS011;9689;51.052;13.772;2023-06-10T21:25:40;14.70;;;7.10;;
19113;SDS011;9689;51.052;13.772;2023-06-10T21:30:42;17.20;;;7.68;;
19113;SDS011;9689;51.052;13.772;2023-06-10T21:35:43;12.68;;;7.43;;
19113;SDS011;9689;51.052;13.772;2023-06-10T21:40:43;11.60;;;7.85;;
19113;SDS011;9689;51.052;13.772;2023-06-10T21:45:45;14.10;;;7.50;;
19113;SDS011;9689;51.052;13.772;2023-06-10T21:50:46;16.40;;;8.57;;
19113;SDS011;9689;51.052;13.772;2023-06-10T21:55:47;17.55;;;9.73;;
19113;SDS011;9689;51.052;13.772;2023-06-10T22:00:49;15.75;;;9.57;;
19113;SDS011;9689;51.052;13.772;2023-06-10T22:05:50;19.30;;;10.05;;
19113;SDS011;9689;51.052;13.772;2023-06-10T22:10:51;18.50;;;11.18;;
19113;SDS011;9689;51.052;13.772;2023-06-10T22:15:53;18.33;;;11.65;;
19113;SDS011;9689;51.052;13.772;2023-06-10T22:20:54;24.17;;;11.27;;
19113;SDS011;9689;51.052;13.772;2023-06-10T22:25:55;17.98;;;11.00;;
19113;SDS011;9689;51.052;13.772;2023-06-10T22:30:57;14.93;;;9.98;;
19113;SDS011;9689;51.052;13.772;2023-06-10T22:35:58;16.48;;;10.57;;
19113;SDS011;9689;51.052;13.772;2023-06-10T22:40:58;16.95;;;10.63;;
19113;SDS011;9689;51.052;13.772;2023-06-10T22:46:00;21.50;;;10.65;;
19113;SDS011;9689;51.052;13.772;2023-06-10T22:51:01;19.08;;;11.30;;
19113;SDS011;9689;51.052;13.772;2023-06-10T22:56:02;18.98;;;10.63;;
19113;SDS011;9689;51.052;13.772;2023-06-10T23:01:05;15.25;;;9.85;;
19113;SDS011;9689;51.052;13.772;2023-06-10T23:06:06;17.70;;;10.27;;
19113;SDS011;9689;51.052;13.772;2023-06-10T23:11:06;15.23;;;9.45;;
19113;SDS011;9689;51.052;13.772;2023-06-10T23:16:08;16.20;;;9.88;;
19113;SDS011;9689;51.052;13.772;2023-06-10T23:21:09;19.55;;;9.85;;
19113;SDS011;9689;51.052;13.772;2023-06-10T23:26:10;16.45;;;9.20;;
19113;SDS011;9689;51.052;13.772;2023-06-10T23:31:12;17.50;;;9.35;;
19113;SDS011;9689;51.052;13.772;2023-06-10T23:36:13;11.68;;;8.35;;
19113;SDS011;9689;51.052;13.772;2023-06-10T23:41:15;15.52;;;8.48;;
19113;SDS011;9689;51.052;13.772;2023-06-10T23:46:17;15.63;;;8.70;;
19113;SDS011;9689;51.052;13.772;2023-06-10T23:51:18;18.38;;;8.23;;
19113;SDS011;9689;51.052;13.772;2023-06-10T23:56:19;12.75;;;7.88;;
